createdAt,value
2019-01-26T00:02:16.722Z,5.72
2019-01-26T00:04:48.074Z,6.20
2019-01-26T00:07:19.313Z,7.05
2019-01-26T00:09:50.671Z,6.55
2019-01-26T00:12:20.755Z,8.55
2019-01-26T00:14:52.074Z,4.67
2019-01-26T00:17:23.434Z,7.83
2019-01-26T00:19:53.555Z,9.88
2019-01-26T00:22:24.996Z,7.75
2019-01-26T00:24:56.378Z,16.55
2019-01-26T00:27:27.720Z,15.40
2019-01-26T00:29:59.673Z,10.48
2019-01-26T00:32:31.075Z,9.40
2019-01-26T00:35:02.395Z,21.68
2019-01-26T00:37:33.754Z,13.98
2019-01-26T00:40:05.238Z,23.87
2019-01-26T00:42:36.458Z,13.40
2019-01-26T00:45:10.842Z,15.50
2019-01-26T00:47:42.074Z,9.05
2019-01-26T00:50:14.914Z,5.85
2019-01-26T00:52:46.357Z,14.58
2019-01-26T00:55:17.562Z,13.68
2019-01-26T00:57:48.833Z,9.98
2019-01-26T01:00:21.883Z,12.53
2019-01-26T01:02:53.394Z,14.33
2019-01-26T01:05:24.714Z,14.55
2019-01-26T01:07:58.435Z,7.70
2019-01-26T01:10:29.552Z,11.30
2019-01-26T01:13:00.916Z,8.50
2019-01-26T01:15:32.274Z,7.30
2019-01-26T01:18:04.683Z,13.32
2019-01-26T01:20:38.522Z,13.35
2019-01-26T01:23:10.674Z,11.48
2019-01-26T01:25:41.994Z,13.80
2019-01-26T01:28:13.442Z,13.85
2019-01-26T01:30:43.675Z,18.25
2019-01-26T01:33:17.273Z,7.80
2019-01-26T01:35:48.598Z,7.08
2019-01-26T01:38:19.935Z,6.95
2019-01-26T01:40:51.474Z,10.00
2019-01-26T01:43:22.683Z,7.83
2019-01-26T01:45:53.915Z,10.80
2019-01-26T01:48:25.125Z,9.98
2019-01-26T01:50:56.442Z,7.75
2019-01-26T01:53:27.626Z,13.95
2019-01-26T01:55:58.957Z,5.03
2019-01-26T01:58:30.203Z,7.47
2019-01-26T02:01:01.835Z,4.72
2019-01-26T02:03:33.114Z,7.28
2019-01-26T02:06:04.475Z,4.60
2019-01-26T02:08:35.793Z,6.95
2019-01-26T02:11:07.642Z,10.53
2019-01-26T02:13:38.858Z,14.90
2019-01-26T02:16:10.042Z,5.45
2019-01-26T02:18:41.475Z,11.70
2019-01-26T02:21:12.754Z,15.58
2019-01-26T02:23:44.275Z,9.60
2019-01-26T02:26:15.657Z,8.60
2019-01-26T02:28:46.795Z,15.45
2019-01-26T02:31:18.314Z,10.50
2019-01-26T02:33:49.721Z,9.60
2019-01-26T02:36:21.034Z,8.20
2019-01-26T02:38:52.282Z,10.28
2019-01-26T02:41:22.361Z,9.28
2019-01-26T02:43:53.684Z,10.20
2019-01-26T02:46:23.834Z,16.10
2019-01-26T02:48:55.163Z,16.17
2019-01-26T02:51:27.275Z,13.48
2019-01-26T02:53:57.892Z,14.53
2019-01-26T02:56:29.043Z,14.45
2019-01-26T02:59:00.401Z,8.48
2019-01-26T03:01:33.076Z,7.45
2019-01-26T03:04:04.594Z,8.83
2019-01-26T03:06:38.323Z,14.50
2019-01-26T03:09:10.395Z,16.97
2019-01-26T03:11:41.922Z,9.13
2019-01-26T03:14:13.882Z,11.83
2019-01-26T03:16:43.346Z,18.27
2019-01-26T03:19:14.604Z,9.63
2019-01-26T03:21:45.837Z,12.10
2019-01-26T03:24:15.996Z,11.63
2019-01-26T03:26:47.314Z,6.62
2019-01-26T03:29:18.809Z,13.95
2019-01-26T03:31:49.967Z,11.63
2019-01-26T03:34:21.276Z,9.55
2019-01-26T03:36:52.441Z,12.90
2019-01-26T03:39:23.917Z,14.98
2019-01-26T03:41:55.356Z,4.05
2019-01-26T03:44:26.857Z,14.75
2019-01-26T03:46:58.834Z,18.15
2019-01-26T03:49:30.203Z,14.80
2019-01-26T03:52:01.438Z,12.40
2019-01-26T03:54:32.602Z,16.17
2019-01-26T03:57:04.042Z,11.50
2019-01-26T03:59:35.438Z,15.85
2019-01-26T04:02:09.123Z,24.02
2019-01-26T04:04:40.374Z,33.83
2019-01-26T04:07:11.916Z,33.35
2019-01-26T04:09:43.321Z,25.70
2019-01-26T04:12:13.594Z,32.60
2019-01-26T04:14:43.834Z,32.65
2019-01-26T04:17:21.593Z,25.80
2019-01-26T04:19:47.479Z,23.92
2019-01-26T04:22:19.043Z,23.98
2019-01-26T04:24:50.275Z,23.40
2019-01-26T04:27:21.597Z,22.60
2019-01-26T04:29:53.079Z,27.30
2019-01-26T04:32:23.434Z,39.00
2019-01-26T04:34:53.555Z,29.32
2019-01-26T04:37:24.957Z,26.48
2019-01-26T04:40:00.131Z,30.48
2019-01-26T04:42:31.516Z,43.17
2019-01-26T04:45:01.563Z,33.53
2019-01-26T04:47:33.079Z,33.20
2019-01-26T04:50:04.363Z,38.45
2019-01-26T04:52:35.522Z,28.40
2019-01-26T04:55:07.558Z,19.55
2019-01-26T04:57:39.051Z,12.43
2019-01-26T05:00:18.001Z,17.98
2019-01-26T05:02:49.514Z,18.77
2019-01-26T05:05:20.756Z,17.98
2019-01-26T05:07:52.199Z,16.10
2019-01-26T05:10:24.083Z,18.30
2019-01-26T05:12:56.875Z,25.27
2019-01-26T05:15:28.354Z,23.87
2019-01-26T05:17:59.837Z,13.98
2019-01-26T05:20:31.463Z,11.15
2019-01-26T05:23:01.123Z,11.20
2019-01-26T05:25:31.276Z,13.25
2019-01-26T05:28:02.514Z,27.70
2019-01-26T05:30:33.973Z,32.03
2019-01-26T05:33:05.402Z,33.78
2019-01-26T05:35:36.756Z,29.42
2019-01-26T05:38:08.522Z,24.57
2019-01-26T05:40:38.276Z,31.05
2019-01-26T05:43:10.358Z,18.73
2019-01-26T05:45:41.724Z,26.52
2019-01-26T05:48:13.034Z,18.35
2019-01-26T05:50:44.364Z,28.23
2019-01-26T05:53:15.594Z,34.65
2019-01-26T05:55:46.997Z,36.80
2019-01-26T05:58:17.437Z,32.67
2019-01-26T06:00:48.765Z,37.55
2019-01-26T06:03:19.954Z,39.53
2019-01-26T06:05:51.081Z,45.63
2019-01-26T06:08:23.758Z,30.30
2019-01-26T06:10:55.234Z,34.45
2019-01-26T06:13:26.594Z,51.73
2019-01-26T06:15:56.714Z,52.55
2019-01-26T06:18:26.835Z,36.30
2019-01-26T06:21:00.643Z,62.95
2019-01-26T06:23:32.113Z,39.53
2019-01-26T06:26:03.558Z,31.17
2019-01-26T06:28:34.802Z,24.95
2019-01-26T06:31:04.954Z,36.23
2019-01-26T06:33:35.314Z,48.10
2019-01-26T06:36:06.686Z,37.40
2019-01-26T06:38:41.242Z,37.53
2019-01-26T06:41:12.593Z,34.78
2019-01-26T06:43:45.514Z,35.65
2019-01-26T06:46:17.074Z,40.08
2019-01-26T06:48:49.999Z,47.00
2019-01-26T06:51:21.394Z,33.88
2019-01-26T06:53:52.715Z,34.95
2019-01-26T06:56:23.968Z,36.35
2019-01-26T06:58:54.039Z,29.15
2019-01-26T07:01:25.247Z,20.30
2019-01-26T07:03:56.522Z,20.80
2019-01-26T07:06:29.282Z,29.27
2019-01-26T07:08:59.514Z,39.35
2019-01-26T07:11:30.754Z,32.05
2019-01-26T07:14:01.882Z,36.23
2019-01-26T07:16:33.718Z,38.65
2019-01-26T07:19:05.076Z,21.25
2019-01-26T07:21:36.434Z,17.85
2019-01-26T07:24:08.397Z,14.95
2019-01-26T07:26:39.594Z,21.02
2019-01-26T07:29:09.760Z,41.40
2019-01-26T07:31:41.035Z,18.48
2019-01-26T07:34:12.274Z,32.65
2019-01-26T07:36:43.474Z,29.70
2019-01-26T07:39:14.715Z,11.45
2019-01-26T07:41:45.996Z,33.10
2019-01-26T07:44:17.233Z,16.32
2019-01-26T07:46:48.447Z,20.37
2019-01-26T07:49:20.197Z,30.23
2019-01-26T07:51:51.442Z,35.28
2019-01-26T07:54:22.834Z,27.22
2019-01-26T07:56:54.674Z,24.85
2019-01-26T07:59:26.637Z,28.60
2019-01-26T08:01:57.994Z,17.82
2019-01-26T08:04:28.162Z,22.42
2019-01-26T08:06:59.354Z,17.98
2019-01-26T08:09:29.433Z,24.37
2019-01-26T08:12:00.715Z,40.08
2019-01-26T08:14:31.554Z,48.80
2019-01-26T08:17:03.595Z,27.37
2019-01-26T08:19:34.837Z,29.95
2019-01-26T08:22:06.076Z,44.70
2019-01-26T08:24:37.342Z,47.78
2019-01-26T08:27:08.597Z,74.95
2019-01-26T08:29:39.914Z,293.27
2019-01-26T08:32:11.273Z,35.23
2019-01-26T08:34:42.514Z,72.53
2019-01-26T08:37:14.554Z,64.67
2019-01-26T08:39:45.876Z,39.18
2019-01-26T08:42:16.155Z,30.82
2019-01-26T08:44:47.410Z,38.33
2019-01-26T08:47:18.673Z,26.10
2019-01-26T08:49:50.476Z,25.85
2019-01-26T08:52:21.834Z,29.30
2019-01-26T08:54:51.959Z,37.73
2019-01-26T08:57:23.313Z,44.35
2019-01-26T08:59:54.517Z,40.45
2019-01-26T09:02:43.715Z,40.67
2019-01-26T09:05:18.915Z,44.80
2019-01-26T09:07:50.161Z,29.75
2019-01-26T09:10:21.394Z,36.20
2019-01-26T09:12:52.722Z,53.28
2019-01-26T09:15:24.283Z,44.40
2019-01-26T09:17:55.633Z,44.58
2019-01-26T09:20:25.837Z,48.70
2019-01-26T09:22:57.163Z,54.83
2019-01-26T09:25:28.073Z,49.77
2019-01-26T09:27:59.473Z,56.70
2019-01-26T09:30:30.833Z,50.63
2019-01-26T09:33:02.156Z,49.48
2019-01-26T09:35:33.563Z,40.15
2019-01-26T09:38:04.875Z,50.08
2019-01-26T09:40:36.203Z,40.60
2019-01-26T09:43:07.567Z,48.25
2019-01-26T09:45:39.613Z,46.00
2019-01-26T09:48:11.526Z,44.38
2019-01-26T09:50:43.406Z,31.65
2019-01-26T09:53:15.208Z,39.63
2019-01-26T09:55:46.366Z,38.13
2019-01-26T09:58:17.526Z,49.15
2019-01-26T10:00:48.701Z,49.70
2019-01-26T10:03:20.111Z,47.43
2019-01-26T10:05:51.421Z,56.80
2019-01-26T10:08:21.529Z,49.95
2019-01-26T10:10:51.516Z,48.02
2019-01-26T10:13:22.735Z,38.35
2019-01-26T10:15:53.931Z,48.42
2019-01-26T10:18:25.130Z,56.18
2019-01-26T10:20:57.929Z,54.30
2019-01-26T10:23:29.087Z,51.65
2019-01-26T10:26:00.250Z,46.68
2019-01-26T10:28:31.446Z,43.90
2019-01-26T10:31:03.250Z,53.78
2019-01-26T10:33:34.423Z,37.00
2019-01-26T10:36:07.048Z,37.03
2019-01-26T10:38:39.766Z,59.15
2019-01-26T10:41:12.565Z,50.25
2019-01-26T10:43:45.380Z,38.60
2019-01-26T10:46:16.565Z,44.40
2019-01-26T10:48:47.778Z,48.45
2019-01-26T10:51:18.885Z,40.75
2019-01-26T10:53:50.049Z,46.95
2019-01-26T10:56:21.175Z,54.98
2019-01-26T10:58:52.419Z,48.23
2019-01-26T11:01:23.622Z,56.83
2019-01-26T11:03:54.785Z,48.75
2019-01-26T11:06:25.986Z,44.40
2019-01-26T11:08:57.766Z,43.25
2019-01-26T11:11:29.570Z,40.83
2019-01-26T11:13:59.605Z,93.97
2019-01-26T11:16:30.168Z,47.53
2019-01-26T11:19:07.683Z,41.88
2019-01-26T11:21:34.171Z,36.70
2019-01-26T11:24:04.960Z,30.60
2019-01-26T11:26:36.344Z,34.18
2019-01-26T11:29:07.652Z,29.50
2019-01-26T11:31:39.453Z,37.80
2019-01-26T11:34:10.726Z,34.38
2019-01-26T11:36:41.968Z,42.67
2019-01-26T11:39:15.433Z,36.73
2019-01-26T11:41:46.685Z,40.55
2019-01-26T11:44:17.898Z,38.42
2019-01-26T11:46:49.046Z,29.37
2019-01-26T11:49:20.171Z,31.68
2019-01-26T11:51:52.935Z,34.50
2019-01-26T11:54:24.085Z,36.10
2019-01-26T11:56:56.837Z,31.23
2019-01-26T11:59:28.695Z,22.87
2019-01-26T12:02:01.529Z,26.07
2019-01-26T12:04:37.110Z,15.23
2019-01-26T12:07:09.899Z,19.15
2019-01-26T12:09:41.061Z,19.25
2019-01-26T12:12:11.163Z,18.25
2019-01-26T12:14:44.538Z,25.75
2019-01-26T12:17:15.720Z,31.42
2019-01-26T12:19:46.976Z,27.67
2019-01-26T12:22:19.765Z,22.42
2019-01-26T12:24:50.681Z,23.45
2019-01-26T12:27:22.226Z,22.30
2019-01-26T12:29:54.804Z,24.50
2019-01-26T12:32:26.013Z,17.12
2019-01-26T12:34:56.104Z,24.92
2019-01-26T12:37:26.175Z,34.58
2019-01-26T12:39:57.413Z,35.17
2019-01-26T12:42:28.220Z,37.42
2019-01-26T12:44:59.465Z,37.13
2019-01-26T12:47:31.294Z,42.17
2019-01-26T12:50:02.553Z,37.60
2019-01-26T12:52:32.664Z,27.70
2019-01-26T12:55:03.977Z,23.00
2019-01-26T12:57:34.073Z,47.43
2019-01-26T13:00:05.464Z,24.25
2019-01-26T13:02:36.772Z,33.67
2019-01-26T13:05:09.293Z,34.50
2019-01-26T13:07:39.434Z,42.80
2019-01-26T13:10:17.153Z,40.83
2019-01-26T13:12:49.784Z,37.75
2019-01-26T13:15:21.060Z,36.38
2019-01-26T13:17:51.307Z,33.38
2019-01-26T13:20:22.619Z,39.70
2019-01-26T13:22:54.072Z,39.08
2019-01-26T13:25:25.382Z,40.70
2019-01-26T13:27:58.593Z,38.23
2019-01-26T13:30:29.532Z,39.90
2019-01-26T13:33:00.773Z,32.33
2019-01-26T13:35:31.942Z,19.48
2019-01-26T13:38:03.136Z,36.80
2019-01-26T13:40:37.215Z,34.60
2019-01-26T13:43:09.137Z,40.15
2019-01-26T13:45:39.276Z,32.98
2019-01-26T13:48:10.534Z,50.03
2019-01-26T13:50:41.753Z,46.73
2019-01-26T13:53:12.893Z,50.15
2019-01-26T13:55:44.134Z,48.95
2019-01-26T13:58:15.353Z,42.98
2019-01-26T14:00:48.986Z,39.73
2019-01-26T14:03:20.505Z,42.88
2019-01-26T14:05:53.021Z,36.77
2019-01-26T14:08:24.481Z,37.48
2019-01-26T14:10:55.774Z,38.00
2019-01-26T14:13:26.972Z,48.90
2019-01-26T14:15:58.177Z,48.73
2019-01-26T14:18:29.551Z,49.35
2019-01-26T14:21:03.952Z,44.20
2019-01-26T14:23:35.781Z,42.78
2019-01-26T14:26:06.981Z,46.68
2019-01-26T14:28:38.183Z,60.03
2019-01-26T14:31:08.315Z,59.05
2019-01-26T14:33:39.613Z,56.73
2019-01-26T14:36:13.581Z,52.70
2019-01-26T14:38:45.097Z,52.73
2019-01-26T14:41:16.634Z,53.80
2019-01-26T14:43:48.221Z,56.15
2019-01-26T14:46:19.681Z,64.50
2019-01-26T14:48:53.335Z,63.25
2019-01-26T14:51:24.743Z,66.12
2019-01-26T14:53:57.373Z,54.00
2019-01-26T14:56:28.573Z,63.65
2019-01-26T14:58:58.733Z,54.50
2019-01-26T15:01:29.557Z,51.05
2019-01-26T15:03:59.145Z,55.05
2019-01-26T15:06:29.321Z,62.67
2019-01-26T15:09:00.694Z,59.38
2019-01-26T15:11:32.092Z,67.20
2019-01-26T15:14:02.284Z,73.02
2019-01-26T15:16:32.484Z,72.85
2019-01-26T15:19:02.895Z,62.33
2019-01-26T15:21:34.337Z,72.62
2019-01-26T15:24:05.896Z,59.08
2019-01-26T15:26:37.213Z,49.88
2019-01-26T15:29:08.653Z,47.88
2019-01-26T15:31:40.101Z,73.52
2019-01-26T15:34:11.615Z,66.97
2019-01-26T15:36:44.532Z,55.65
2019-01-26T15:39:16.101Z,60.65
2019-01-26T15:41:48.012Z,66.53
2019-01-26T15:44:19.513Z,53.90
2019-01-26T15:46:49.874Z,78.50
2019-01-26T15:49:21.379Z,88.00
2019-01-26T15:51:52.823Z,86.57
2019-01-26T15:54:24.603Z,90.45
2019-01-26T15:56:54.805Z,79.87
2019-01-26T15:59:26.273Z,81.87
2019-01-26T16:01:58.260Z,62.80
2019-01-26T16:04:29.781Z,66.47
2019-01-26T16:07:01.313Z,54.55
2019-01-26T16:09:33.373Z,55.23
2019-01-26T16:12:04.933Z,55.12
2019-01-26T16:14:37.103Z,51.92
2019-01-26T16:17:08.407Z,46.02
2019-01-26T16:19:39.880Z,50.50
2019-01-26T16:22:11.414Z,53.35
2019-01-26T16:24:42.733Z,62.05
2019-01-26T16:27:14.566Z,63.30
2019-01-26T16:29:48.483Z,63.08
2019-01-26T16:32:19.444Z,71.57
2019-01-26T16:34:50.954Z,82.12
2019-01-26T16:37:22.396Z,99.05
2019-01-26T16:39:55.300Z,116.03
2019-01-26T16:42:27.452Z,121.20
2019-01-26T16:44:58.901Z,109.15
2019-01-26T16:47:30.322Z,115.47
2019-01-26T16:50:01.814Z,109.20
2019-01-26T16:52:32.250Z,88.97
2019-01-26T16:55:04.452Z,78.12
2019-01-26T16:57:35.902Z,72.97
2019-01-26T17:00:10.333Z,57.65
2019-01-26T17:02:41.594Z,57.23
2019-01-26T17:05:13.538Z,43.70
2019-01-26T17:07:44.953Z,45.75
2019-01-26T17:10:19.060Z,41.45
2019-01-26T17:12:50.491Z,44.23
2019-01-26T17:15:21.988Z,44.05
2019-01-26T17:17:54.140Z,48.30
2019-01-26T17:20:27.005Z,45.12
2019-01-26T17:22:58.780Z,46.00
2019-01-26T17:25:29.183Z,61.35
2019-01-26T17:28:03.136Z,54.95
2019-01-26T17:30:39.775Z,50.25
2019-01-26T17:33:10.056Z,49.15
2019-01-26T17:35:40.464Z,56.53
2019-01-26T17:38:13.420Z,55.80
2019-01-26T17:40:44.937Z,53.63
2019-01-26T17:43:15.363Z,63.55
2019-01-26T17:45:46.892Z,60.63
2019-01-26T17:48:18.492Z,47.35
2019-01-26T17:50:50.101Z,82.50
2019-01-26T17:53:22.310Z,62.85
2019-01-26T17:55:53.777Z,66.65
2019-01-26T17:58:25.333Z,59.80
2019-01-26T18:00:58.373Z,50.48
2019-01-26T18:03:29.860Z,47.03
2019-01-26T18:06:01.420Z,44.35
2019-01-26T18:08:32.974Z,41.30
2019-01-26T18:11:05.524Z,39.60
2019-01-26T18:13:37.057Z,42.45
2019-01-26T18:16:09.676Z,39.70
2019-01-26T18:18:44.172Z,35.60
2019-01-26T18:21:15.779Z,41.83
2019-01-26T18:23:47.435Z,35.92
2019-01-26T18:26:18.937Z,42.00
2019-01-26T18:28:50.493Z,36.28
2019-01-26T18:31:22.018Z,43.65
2019-01-26T18:33:56.032Z,44.33
2019-01-26T18:36:27.535Z,48.75
2019-01-26T18:38:59.135Z,56.08
2019-01-26T18:41:29.540Z,52.93
2019-01-26T18:44:01.053Z,34.70
2019-01-26T18:46:31.493Z,48.20
2019-01-26T18:49:03.615Z,44.03
2019-01-26T18:51:35.132Z,44.80
2019-01-26T18:54:06.695Z,51.48
2019-01-26T18:56:38.212Z,39.40
2019-01-26T18:59:10.814Z,40.30
2019-01-26T19:01:42.914Z,48.50
2019-01-26T19:04:15.732Z,48.25
2019-01-26T19:06:47.294Z,47.10
2019-01-26T19:09:19.429Z,51.10
2019-01-26T19:11:50.852Z,42.08
2019-01-26T19:14:22.389Z,51.70
2019-01-26T19:16:55.136Z,41.90
2019-01-26T19:19:26.733Z,45.88
2019-01-26T19:21:58.333Z,37.08
2019-01-26T19:25:40.495Z,34.95
2019-01-26T19:28:12.097Z,37.63
2019-01-26T19:30:43.623Z,42.05
2019-01-26T19:33:15.230Z,44.20
2019-01-26T19:35:50.621Z,42.67
2019-01-26T19:38:22.115Z,50.38
2019-01-26T19:40:53.745Z,46.73
2019-01-26T19:43:24.591Z,51.13
2019-01-26T19:45:56.055Z,38.25
2019-01-26T19:48:27.672Z,51.65
2019-01-26T19:50:57.462Z,39.92
2019-01-26T19:53:28.983Z,52.73
2019-01-26T19:56:00.572Z,42.58
2019-01-26T19:58:32.134Z,29.42
2019-01-26T20:01:03.774Z,38.00
2019-01-26T20:03:36.564Z,58.73
2019-01-26T20:06:08.172Z,64.20
2019-01-26T20:08:39.173Z,53.20
2019-01-26T20:11:10.772Z,46.53
2019-01-26T20:13:42.893Z,53.13
2019-01-26T20:16:13.392Z,55.10
2019-01-26T20:18:44.944Z,57.35
2019-01-26T20:21:17.751Z,56.00
2019-01-26T20:23:47.220Z,48.68
2019-01-26T20:26:18.784Z,56.88
2019-01-26T20:28:51.816Z,45.88
2019-01-26T20:31:23.864Z,51.80
2019-01-26T20:33:55.302Z,47.55
2019-01-26T20:36:26.875Z,61.00
2019-01-26T20:38:58.561Z,62.80
2019-01-26T20:41:30.104Z,54.38
2019-01-26T20:44:01.629Z,66.85
2019-01-26T20:46:33.212Z,70.65
2019-01-26T20:49:04.784Z,50.65
2019-01-26T20:51:36.213Z,41.18
2019-01-26T20:54:06.672Z,72.08
2019-01-26T20:56:38.175Z,68.25
2019-01-26T20:59:08.587Z,68.75
2019-01-26T21:01:38.922Z,63.85
2019-01-26T21:04:09.352Z,69.42
2019-01-26T21:06:39.554Z,66.50
2019-01-26T21:09:09.975Z,59.13
2019-01-26T21:11:44.724Z,35.95
2019-01-26T21:14:16.254Z,51.58
2019-01-26T21:16:46.693Z,62.85
2019-01-26T21:19:18.180Z,68.07
2019-01-26T21:21:48.421Z,71.50
2019-01-26T21:24:21.070Z,54.55
2019-01-26T21:26:52.493Z,66.47
2019-01-26T21:29:23.934Z,60.88
2019-01-26T21:31:54.253Z,48.55
2019-01-26T21:34:24.681Z,47.40
2019-01-26T21:36:56.109Z,42.08
2019-01-26T21:39:28.739Z,58.80
2019-01-26T21:42:00.627Z,57.67
2019-01-26T21:44:32.083Z,54.60
2019-01-26T21:47:03.613Z,51.73
2019-01-26T21:49:34.972Z,63.75
2019-01-26T21:52:06.358Z,67.82
2019-01-26T21:54:37.673Z,56.25
2019-01-26T21:57:09.052Z,46.63
2019-01-26T21:59:41.703Z,44.88
2019-01-26T22:02:13.021Z,50.90
2019-01-26T22:04:44.313Z,85.55
2019-01-26T22:07:15.612Z,93.27
2019-01-26T22:09:46.830Z,55.65
2019-01-26T22:12:18.653Z,50.88
2019-01-26T22:14:51.133Z,61.70
2019-01-26T22:17:22.332Z,46.40
2019-01-26T22:19:54.779Z,60.00
2019-01-26T22:22:24.992Z,59.15
2019-01-26T22:24:56.893Z,62.95
2019-01-26T22:27:28.102Z,59.40
2019-01-26T22:30:01.337Z,50.67
2019-01-26T22:32:32.633Z,61.60
2019-01-26T22:35:02.653Z,57.93
2019-01-26T22:37:33.853Z,60.12
2019-01-26T22:40:03.946Z,64.10
2019-01-26T22:42:35.138Z,57.43
2019-01-26T22:45:07.215Z,50.00
2019-01-26T22:47:37.249Z,56.18
2019-01-26T22:50:11.677Z,73.78
2019-01-26T22:52:42.984Z,82.75
2019-01-26T22:55:16.512Z,73.90
2019-01-26T22:57:47.873Z,67.15
2019-01-26T23:00:52.853Z,70.05
2019-01-26T23:03:53.155Z,66.07
2019-01-26T23:06:42.493Z,61.05
2019-01-26T23:09:28.892Z,61.58
2019-01-26T23:12:09.292Z,64.27
2019-01-26T23:15:00.246Z,48.78
2019-01-26T23:17:40.656Z,39.50
2019-01-26T23:20:25.782Z,57.38
2019-01-26T23:23:17.109Z,53.80
2019-01-26T23:25:51.455Z,43.92
2019-01-26T23:28:37.403Z,52.78
2019-01-26T23:31:19.309Z,50.98
2019-01-26T23:33:50.492Z,48.73
2019-01-26T23:36:21.694Z,46.58
2019-01-26T23:38:51.228Z,48.78
2019-01-26T23:41:22.653Z,49.53
2019-01-26T23:43:53.852Z,50.65
2019-01-26T23:46:25.053Z,46.23
2019-01-26T23:48:56.286Z,43.85
2019-01-26T23:51:27.063Z,45.60
2019-01-26T23:53:58.341Z,43.00
2019-01-26T23:56:29.533Z,41.10
2019-01-26T23:59:01.373Z,44.75
